الصفحة الرئيسية
METAR-TAF:

METAR-TAF

مطار :

فلوريانوبوليس, سانتا كاتارينا, البرازيل

دائرة عرض: 27-40S, خط طول: 048-33W, ارتفاع: 5 متر

مراقبة الطقس الحالي

تاريخ ووقت الإصدار 35 دقيقة قبل الساعة 13:00UTC
ريح 9 عقدة من الشمال
درجة الحرارة 25°درجة مئوية
الرطوبة 74%
ضغط 1019 hPa
الرؤية 10 كم أو أكثر
الغيوم لا تقل 1500 م ولا وجود لمزنة ركامية السحاب الأسود

METAR: SBFL 231300Z 01009KT CAVOK 25/20 Q1019

زمن: 10:35 (13:35 UTC)

توقعات

تاريخ ووقت الإصدار 3ساعات و 50 دقيقة قبل الساعة 09:45UTC
التوقعات صالحة من23 الساعة 12 UTC إلى 24 الساعة 12 UTC
ريح 7 عقدة من الشمال/الشمال الغربي
الرؤية 10 كم أو أكثر
غيوم متفرقة على ارتفاع 2500 قدم
أصبح
من 23 الساعة 12 UTC إلى 23 الساعة 14 UTC
ريح 10 عقدة من الشمال
غيوم قليلة على ارتفاع 3000 قدم

TAF: SBFL 230945Z 2312/2412 33007KT 9999 SCT025 TX28/2317Z TN21/2408Z BECMG 2312/2314 01010KT FEW030 RMK PEB

أرصاد الطقس والتوقعات من أكثر من 4000 مطار (تقارير الطقس للمطار METAR والتنبؤ بالطقس بالمطارTAF).

المحطات المتاحة هي النقط الصفراء والحمراء على الخريطة.

حرك المؤشر فوق النقطة لمعرفة اسم المحطة.

ثم انقر لمعرفة أرصاد وتوقعات الطقس.

لتغيير الخارطة: اضغط على الأزرار الخضراء مع رمز الصليب الأسود للتكبير. على الزر الأخضر مع شرطة للتصغير، أو على الأسهم الخضراء للخرائط المجاورة.


METAR-TAF: